Time;durP1;ratioP1;P1;durP2;ratioP2;P2;SDS_P1;SDS_P2;PMS_P1;PMS_P2;Temp;Humidity;BMP_temperature;BMP_pressure;BME280_temperature;BME280_humidity;BME280_pressure;Samples;Min_cycle;Max_cycle;Signal;HPM_P1;HPM_P2
2022/11/02 00:05:46;;;;;;;20.95;16.55;;;15.20;86.60;;;;;;10714998;33;20025;-74
2022/11/02 00:11:48;;;;;;;23.75;19.02;;;15.10;86.70;;;;;;10710815;33;20063;-74
2022/11/02 00:17:54;;;;;;;26.75;20.70;;;15.20;86.70;;;;;;10710638;33;20025;-74
2022/11/02 00:23:57;;;;;;;19.75;16.05;;;15.10;86.70;;;;;;10735662;27;20040;-74
2022/11/02 00:30:00;;;;;;;29.63;23.80;;;15.20;86.70;;;;;;10746672;33;20025;-75
2022/11/02 00:36:03;;;;;;;27.20;22.02;;;15.20;86.80;;;;;;10756634;33;20090;-74
2022/11/02 00:42:05;;;;;;;16.73;13.00;;;15.20;86.90;;;;;;10757108;32;20431;-74
2022/11/02 00:48:07;;;;;;;25.45;19.58;;;15.10;86.90;;;;;;10756861;33;20047;-74
2022/11/02 00:54:16;;;;;;;15.60;12.52;;;15.10;86.90;;;;;;10756556;33;20025;-74
2022/11/02 01:00:19;;;;;;;22.10;16.02;;;15.10;87.00;;;;;;10756596;33;20024;-74
2022/11/02 01:07:09;;;;;;;15.10;11.40;;;15.00;87.20;;;;;;10756296;33;20036;-75
2022/11/02 01:13:11;;;;;;;19.75;14.13;;;15.00;87.10;;;;;;10756017;33;20036;-74
2022/11/02 01:19:14;;;;;;;23.50;17.40;;;15.00;87.20;;;;;;10755929;33;20029;-75
2022/11/02 01:25:16;;;;;;;18.98;13.10;;;15.00;87.20;;;;;;10755837;33;20397;-74
2022/11/02 01:31:19;;;;;;;19.17;13.18;;;15.00;87.30;;;;;;10755686;33;20357;-74
2022/11/02 01:37:21;;;;;;;17.17;12.18;;;15.10;87.20;;;;;;10755333;33;20028;-74
2022/11/02 01:43:33;;;;;;;26.02;18.35;;;15.10;87.20;;;;;;10754930;33;20056;-74
2022/11/02 01:49:46;;;;;;;20.58;16.65;;;15.10;87.20;;;;;;10755068;33;20248;-74
2022/11/02 01:55:50;;;;;;;23.48;17.95;;;15.10;87.10;;;;;;10751358;32;20074;-74
2022/11/02 02:01:53;;;;;;;19.60;14.07;;;15.10;87.20;;;;;;10741840;33;20042;-74
2022/11/02 02:07:56;;;;;;;21.00;17.08;;;15.00;87.10;;;;;;10754543;33;20051;-74
2022/11/02 02:14:12;;;;;;;17.17;13.13;;;15.00;87.20;;;;;;10741561;32;20055;-74
2022/11/02 02:20:40;;;;;;;20.50;13.93;;;15.00;87.00;;;;;;10754350;32;20024;-74
2022/11/02 02:27:04;;;;;;;21.67;11.32;;;15.00;87.00;;;;;;10754137;33;20397;-74
2022/11/02 02:33:28;;;;;;;21.30;16.50;;;15.00;87.10;;;;;;10740919;33;20025;-74
2022/11/02 02:39:45;;;;;;;35.55;16.95;;;15.00;87.10;;;;;;10753761;33;20025;-74
2022/11/02 02:46:18;;;;;;;17.60;15.07;;;15.00;87.10;;;;;;10751566;33;20017;-74
2022/11/02 02:52:22;;;;;;;17.35;13.88;;;15.00;87.00;;;;;;10753285;33;20064;-74
2022/11/02 02:58:29;;;;;;;22.17;16.75;;;15.00;87.00;;;;;;10752468;33;20021;-74
2022/11/02 03:04:31;;;;;;;24.25;17.67;;;15.00;87.00;;;;;;10752966;33;20036;-74
2022/11/02 03:10:53;;;;;;;22.30;16.02;;;15.00;86.80;;;;;;10752921;32;20087;-74
2022/11/02 03:17:15;;;;;;;18.73;13.73;;;15.00;86.80;;;;;;10752751;33;20439;-74
2022/11/02 03:23:25;;;;;;;21.90;13.88;;;14.90;86.90;;;;;;10752784;32;20067;-74
2022/11/02 03:30:03;;;;;;;24.00;19.67;;;15.00;87.10;;;;;;10752278;33;20036;-74
2022/11/02 03:36:11;;;;;;;16.05;11.90;;;15.10;87.10;;;;;;10568472;33;20030;-74
2022/11/02 03:42:22;;;;;;;13.80;9.40;;;15.20;87.10;;;;;;10553635;33;20030;-74
2022/11/02 03:48:30;;;;;;;23.05;16.50;;;15.20;87.00;;;;;;10570041;33;20027;-74
2022/11/02 03:55:02;;;;;;;19.50;15.07;;;15.20;87.00;;;;;;10568850;33;20560;-74
2022/11/02 04:01:09;;;;;;;19.25;14.43;;;15.20;87.10;;;;;;10568651;33;20160;-74
2022/11/02 04:07:13;;;;;;;20.50;11.80;;;15.20;87.20;;;;;;10568265;33;20038;-74
2022/11/02 04:19:37;;;;;;;17.17;11.10;;;15.20;87.20;;;;;;10751209;33;20360;-74
2022/11/02 04:25:39;;;;;;;23.60;15.60;;;15.30;87.10;;;;;;10750842;33;20047;-74
2022/11/02 04:31:46;;;;;;;18.58;13.85;;;15.30;86.90;;;;;;10734306;32;20047;-74
2022/11/02 04:44:13;;;;;;;24.30;15.90;;;15.30;86.90;;;;;;10750550;33;20047;-74
2022/11/02 04:50:15;;;;;;;19.95;15.65;;;15.30;86.90;;;;;;10750178;33;20024;-74
2022/11/02 04:56:20;;;;;;;27.25;16.12;;;15.30;86.90;;;;;;10750214;33;20021;-74
2022/11/02 05:02:22;;;;;;;25.27;15.60;;;15.30;86.90;;;;;;10750152;32;20025;-74
2022/11/02 05:08:24;;;;;;;28.62;20.37;;;15.40;86.80;;;;;;10749983;33;20110;-74
2022/11/02 05:14:27;;;;;;;29.65;20.92;;;15.40;86.80;;;;;;10749698;33;20043;-73
2022/11/02 05:21:00;;;;;;;31.45;18.83;;;15.30;86.70;;;;;;10754419;33;20017;-74
2022/11/02 05:27:03;;;;;;;32.20;24.45;;;15.30;86.70;;;;;;10755902;33;20075;-73
2022/11/02 05:33:06;;;;;;;28.30;17.83;;;15.30;86.90;;;;;;10755639;33;20017;-72
2022/11/02 05:39:09;;;;;;;36.85;24.20;;;15.30;86.90;;;;;;10753354;33;20341;-73
2022/11/02 05:45:11;;;;;;;31.02;21.85;;;15.30;86.80;;;;;;10755367;33;20021;-72
2022/11/02 05:51:13;;;;;;;42.35;23.62;;;15.30;86.90;;;;;;10754946;33;20044;-72
2022/11/02 05:57:16;;;;;;;36.45;22.20;;;15.30;86.80;;;;;;10754924;33;20012;-74
2022/11/02 06:03:21;;;;;;;37.45;24.75;;;15.30;86.80;;;;;;10754833;32;20043;-74
2022/11/02 06:09:23;;;;;;;38.08;22.58;;;15.30;86.80;;;;;;10741562;33;20372;-74
2022/11/02 06:15:26;;;;;;;34.58;22.73;;;15.30;86.70;;;;;;10754664;33;20337;-74
2022/11/02 06:21:29;;;;;;;35.22;22.00;;;15.40;86.80;;;;;;10750942;33;20024;-79
2022/11/02 06:27:38;;;;;;;43.08;26.48;;;15.40;86.80;;;;;;10750018;33;20051;-74
2022/11/02 06:33:44;;;;;;;46.15;25.90;;;15.40;86.70;;;;;;10752939;33;20295;-74
2022/11/02 06:39:59;;;;;;;42.72;29.65;;;15.40;86.70;;;;;;10753575;33;20048;-73
2022/11/02 06:46:01;;;;;;;51.95;36.13;;;15.40;86.70;;;;;;10753588;32;20051;-73
2022/11/02 06:52:03;;;;;;;55.50;37.00;;;15.30;86.90;;;;;;10753461;33;20086;-74
2022/11/02 06:58:05;;;;;;;54.28;38.08;;;15.30;87.00;;;;;;10753285;33;20417;-73
2022/11/02 07:04:07;;;;;;;44.20;30.02;;;15.30;87.00;;;;;;10735484;33;20021;-74
2022/11/02 07:10:10;;;;;;;84.55;52.00;;;15.30;87.00;;;;;;10752401;33;20029;-73
2022/11/02 07:16:12;;;;;;;57.05;36.08;;;15.30;86.90;;;;;;10751990;33;20032;-73
2022/11/02 07:22:14;;;;;;;89.22;55.60;;;15.40;87.00;;;;;;10752295;33;20021;-79
2022/11/02 07:28:16;;;;;;;56.35;32.13;;;15.40;87.10;;;;;;10739570;33;20341;-79
2022/11/02 07:34:18;;;;;;;53.80;36.08;;;15.40;87.10;;;;;;10751152;33;20051;-79
2022/11/02 07:40:21;;;;;;;44.45;30.20;;;15.50;87.00;;;;;;10784146;33;20024;-79
2022/11/02 07:46:24;;;;;;;48.33;27.50;;;15.60;86.90;;;;;;10775391;32;20068;-80
2022/11/02 07:52:26;;;;;;;46.80;28.85;;;15.70;86.80;;;;;;10915377;32;20057;-80
2022/11/02 07:58:28;;;;;;;54.50;35.00;;;15.70;86.80;;;;;;10942344;32;20292;-80
2022/11/02 08:04:32;;;;;;;58.90;39.40;;;15.80;86.90;;;;;;10941851;32;20027;-80
2022/11/02 08:10:35;;;;;;;56.13;32.08;;;15.90;87.00;;;;;;10942109;32;20107;-80
2022/11/02 08:16:36;;;;;;;63.97;41.05;;;15.90;87.10;;;;;;10928210;32;20027;-80
2022/11/02 08:22:39;;;;;;;64.43;42.47;;;16.00;87.30;;;;;;10897457;27;20059;-80
2022/11/02 08:28:41;;;;;;;55.55;36.95;;;16.00;87.30;;;;;;10751142;33;20051;-80
2022/11/02 08:34:43;;;;;;;54.03;37.80;;;16.10;87.20;;;;;;10750329;33;20098;-79
2022/11/02 08:40:45;;;;;;;71.72;47.17;;;16.20;87.10;;;;;;10750616;33;20044;-77
2022/11/02 08:46:47;;;;;;;40.35;27.75;;;16.20;87.10;;;;;;10750563;32;20325;-78
2022/11/02 08:52:49;;;;;;;72.78;37.33;;;16.20;87.10;;;;;;10738786;33;20306;-80
2022/11/02 08:59:07;;;;;;;55.47;39.28;;;16.20;87.10;;;;;;10755085;33;20036;-78
2022/11/02 09:05:10;;;;;;;55.35;33.28;;;16.30;87.00;;;;;;10755340;33;20016;-79
2022/11/02 09:11:13;;;;;;;83.20;58.28;;;16.40;86.90;;;;;;10756482;33;20421;-79
2022/11/02 09:17:45;;;;;;;68.95;43.08;;;16.50;86.90;;;;;;10756309;33;20032;-77
2022/11/02 09:23:48;;;;;;;47.53;33.00;;;16.60;86.90;;;;;;10754292;33;20102;-78
2022/11/02 09:29:50;;;;;;;50.65;36.13;;;16.60;86.80;;;;;;10755509;33;20033;-78
2022/11/02 09:35:52;;;;;;;45.08;27.42;;;16.60;86.80;;;;;;10754586;33;20052;-77
2022/11/02 09:42:21;;;;;;;58.75;35.78;;;16.60;86.70;;;;;;10755379;33;20028;-77
2022/11/02 09:48:30;;;;;;;54.83;40.87;;;16.70;86.60;;;;;;10755405;33;20383;-78
2022/11/02 09:54:46;;;;;;;51.90;37.42;;;16.80;86.40;;;;;;10755373;33;20353;-77
2022/11/02 10:00:55;;;;;;;53.38;36.97;;;17.00;86.20;;;;;;10755453;33;20021;-78
2022/11/02 10:07:31;;;;;;;47.42;30.35;;;17.20;85.90;;;;;;10754879;33;20033;-77
2022/11/02 10:13:50;;;;;;;68.45;43.33;;;17.30;85.90;;;;;;10753507;33;20083;-77
2022/11/02 10:19:58;;;;;;;48.20;34.33;;;17.30;85.70;;;;;;10749612;33;20025;-78
2022/11/02 10:26:01;;;;;;;49.00;34.22;;;17.50;85.60;;;;;;10750928;33;20048;-77
2022/11/02 10:32:04;;;;;;;61.47;38.15;;;17.50;85.50;;;;;;10740779;33;20395;-77
2022/11/02 10:38:16;;;;;;;47.25;29.33;;;17.50;85.50;;;;;;10740776;32;20393;-78
2022/11/02 10:44:54;;;;;;;60.15;31.27;;;17.50;85.40;;;;;;10740513;33;20004;-76
2022/11/02 10:51:06;;;;;;;45.45;29.90;;;17.70;85.20;;;;;;10752624;33;20059;-77
2022/11/02 10:57:19;;;;;;;52.55;34.47;;;17.60;85.30;;;;;;10752948;33;20020;-77
2022/11/02 11:03:21;;;;;;;55.25;35.70;;;17.60;85.50;;;;;;10752133;33;20070;-77
2022/11/02 11:09:32;;;;;;;58.30;36.00;;;17.70;85.50;;;;;;10749822;33;20050;-77
2022/11/02 11:15:35;;;;;;;45.40;35.65;;;17.80;85.40;;;;;;10734751;33;20090;-77
2022/11/02 11:21:48;;;;;;;60.78;44.00;;;17.80;85.10;;;;;;10751539;33;20032;-77
2022/11/02 11:27:58;;;;;;;56.55;36.22;;;17.90;84.70;;;;;;10734952;33;20051;-78
2022/11/02 11:34:00;;;;;;;59.88;38.80;;;17.90;84.60;;;;;;10740011;33;20353;-77
2022/11/02 11:40:14;;;;;;;50.78;36.63;;;17.90;84.50;;;;;;10752192;33;20047;-77
2022/11/02 11:46:16;;;;;;;55.90;35.20;;;18.00;84.30;;;;;;10752030;33;20033;-77
2022/11/02 11:52:24;;;;;;;50.17;36.95;;;18.00;84.30;;;;;;10751448;33;20112;-77
2022/11/02 11:58:28;;;;;;;38.80;27.00;;;18.00;84.20;;;;;;10751617;33;20078;-77
2022/11/02 12:04:33;;;;;;;53.15;34.30;;;18.00;84.20;;;;;;10746805;33;20032;-77
2022/11/02 12:10:52;;;;;;;48.95;34.38;;;18.00;84.20;;;;;;10756374;32;20060;-77
2022/11/02 12:17:18;;;;;;;45.08;33.08;;;18.10;84.10;;;;;;10758193;32;20107;-77
2022/11/02 12:23:53;;;;;;;48.22;36.25;;;18.20;84.00;;;;;;10767491;32;20028;-78
2022/11/02 12:30:31;;;;;;;57.75;34.15;;;18.20;83.90;;;;;;10757081;33;20094;-78
2022/11/02 12:37:07;;;;;;;51.92;38.22;;;18.20;83.80;;;;;;10747333;33;20055;-77
2022/11/02 12:43:44;;;;;;;41.42;31.25;;;18.20;83.40;;;;;;10757280;33;20033;-78
2022/11/02 12:50:14;;;;;;;78.47;51.50;;;18.20;83.40;;;;;;10756222;33;20306;-78
2022/11/02 12:56:49;;;;;;;56.42;38.50;;;18.30;83.00;;;;;;10756405;33;20047;-75
2022/11/02 13:03:19;;;;;;;48.20;33.75;;;18.20;83.00;;;;;;10758638;32;20047;-74
2022/11/02 13:09:27;;;;;;;57.38;38.42;;;18.30;83.00;;;;;;10758052;32;20033;-74
2022/11/02 13:15:34;;;;;;;50.28;34.88;;;18.30;82.80;;;;;;10757917;33;20055;-73
2022/11/02 13:21:47;;;;;;;46.67;35.70;;;18.30;82.80;;;;;;10753496;33;20071;-73
2022/11/02 13:28:37;;;;;;;52.15;34.33;;;18.30;82.80;;;;;;10758828;33;20051;-74
2022/11/02 13:34:51;;;;;;;47.20;33.40;;;18.30;82.80;;;;;;10646099;33;20037;-74
2022/11/02 13:41:22;;;;;;;44.72;33.42;;;18.30;82.80;;;;;;10643016;32;20057;-74
2022/11/02 13:47:51;;;;;;;41.90;30.75;;;18.30;82.80;;;;;;10614402;33;20323;-77
2022/11/02 13:53:59;;;;;;;48.03;30.83;;;18.30;82.90;;;;;;10607542;33;20071;-77
2022/11/02 14:00:07;;;;;;;47.60;29.93;;;18.30;82.90;;;;;;10607440;32;20034;-77
2022/11/02 14:06:32;;;;;;;51.90;34.15;;;18.40;82.90;;;;;;10635972;32;20118;-74
2022/11/02 14:12:45;;;;;;;40.12;30.48;;;18.40;82.80;;;;;;10740589;33;20313;-73
2022/11/02 14:19:15;;;;;;;43.55;33.55;;;18.30;82.80;;;;;;10754241;33;20029;-74
2022/11/02 14:25:17;;;;;;;;;;;18.30;82.80;;;;;;10754413;33;20020;-74
2022/11/02 14:32:00;;;;;;;44.55;31.52;;;18.20;82.90;;;;;;10753865;33;19951;-74
2022/11/02 14:38:24;;;;;;;43.25;32.47;;;18.20;83.00;;;;;;10749698;33;20037;-73
2022/11/02 14:44:45;;;;;;;31.48;27.75;;;18.20;83.10;;;;;;10753617;33;20021;-73
2022/11/02 14:51:03;;;;;;;59.35;37.20;;;18.20;83.10;;;;;;10750741;33;20036;-74
2022/11/02 14:57:20;;;;;;;58.55;41.95;;;18.10;83.20;;;;;;10753284;32;20396;-73
2022/11/02 15:03:24;;;;;;;63.00;40.60;;;18.00;83.20;;;;;;10732714;33;20037;-74
2022/11/02 15:09:52;;;;;;;60.00;37.35;;;18.00;83.40;;;;;;10715716;33;20021;-73
2022/11/02 15:15:56;;;;;;;48.53;33.30;;;18.00;83.50;;;;;;10716529;33;20331;-73
2022/11/02 15:22:27;;;;;;;57.50;36.90;;;17.90;83.60;;;;;;10716519;33;20028;-73
2022/11/02 15:28:32;;;;;;;59.67;38.60;;;17.90;83.70;;;;;;10715452;33;20025;-73
2022/11/02 15:34:56;;;;;;;53.92;33.65;;;17.90;83.70;;;;;;10713256;33;20137;-73
2022/11/02 15:41:20;;;;;;;76.57;52.42;;;17.80;83.80;;;;;;10716040;33;20052;-73
2022/11/02 15:48:02;;;;;;;70.60;46.83;;;17.80;83.80;;;;;;10715496;33;20025;-72
2022/11/02 15:54:23;;;;;;;73.65;47.95;;;17.70;83.90;;;;;;10715328;33;20061;-73
2022/11/02 16:00:31;;;;;;;51.05;38.13;;;17.70;84.10;;;;;;10714340;33;20302;-73
2022/11/02 16:07:06;;;;;;;73.35;47.85;;;17.60;84.10;;;;;;10715394;33;20404;-72
2022/11/02 16:13:15;;;;;;;68.82;50.25;;;17.50;84.30;;;;;;10713346;33;20063;-73
2022/11/02 16:19:19;;;;;;;52.75;34.63;;;17.40;84.30;;;;;;10779149;32;20053;-77
2022/11/02 16:25:44;;;;;;;60.12;41.45;;;17.40;84.50;;;;;;10405185;27;11941613;-79
2022/11/02 16:32:15;;;;;;;50.40;31.75;;;17.50;84.50;;;;;;10814614;33;20019;-77
2022/11/02 16:38:19;;;;;;;56.03;37.90;;;17.40;84.50;;;;;;10826413;33;20028;-76
2022/11/02 16:44:32;;;;;;;56.85;35.75;;;17.40;84.50;;;;;;10826428;33;20484;-77
2022/11/02 16:50:34;;;;;;;58.35;35.28;;;17.30;84.60;;;;;;10866570;32;20058;-78
2022/11/02 16:56:37;;;;;;;41.22;28.45;;;17.30;84.60;;;;;;10903467;32;20028;-77
2022/11/02 17:02:44;;;;;;;58.10;39.25;;;17.30;84.60;;;;;;10902484;32;20058;-76
2022/11/02 17:08:54;;;;;;;48.65;33.75;;;17.30;84.70;;;;;;10899670;32;20049;-73
2022/11/02 17:14:59;;;;;;;49.22;33.42;;;17.30;84.90;;;;;;10753231;32;20029;-73
2022/11/02 17:21:19;;;;;;;53.22;35.35;;;17.30;85.00;;;;;;10719897;33;20043;-73
2022/11/02 17:27:31;;;;;;;41.42;27.70;;;17.30;84.90;;;;;;10718873;32;20021;-73
2022/11/02 17:34:14;;;;;;;56.95;37.67;;;17.30;85.00;;;;;;10718854;33;20021;-76
2022/11/02 17:40:16;;;;;;;46.90;32.05;;;17.30;85.20;;;;;;10694900;33;20033;-76
2022/11/02 17:46:19;;;;;;;56.88;35.10;;;17.30;85.30;;;;;;10683171;33;20048;-77
2022/11/02 17:52:20;;;;;;;45.03;30.73;;;17.30;85.20;;;;;;10681870;33;20041;-76
2022/11/02 17:58:47;;;;;;;52.80;33.80;;;17.20;85.20;;;;;;10677820;33;20029;-76
2022/11/02 18:04:49;;;;;;;50.38;34.85;;;17.20;85.10;;;;;;10682539;33;20029;-77
2022/11/02 18:10:51;;;;;;;49.80;30.48;;;17.30;85.10;;;;;;10682289;33;20029;-76
2022/11/02 18:17:07;;;;;;;51.35;32.13;;;17.20;85.10;;;;;;10683645;33;20021;-76
2022/11/02 18:23:18;;;;;;;36.08;26.62;;;17.20;85.10;;;;;;10682124;33;20103;-76
2022/11/02 18:29:20;;;;;;;53.30;32.35;;;17.20;85.10;;;;;;10681699;33;20037;-76
2022/11/02 18:35:23;;;;;;;51.22;32.30;;;17.20;85.00;;;;;;10682972;33;20037;-76
2022/11/02 18:41:29;;;;;;;41.95;25.52;;;17.20;85.10;;;;;;10681553;33;20083;-76
2022/11/02 18:47:32;;;;;;;40.97;25.00;;;17.20;85.20;;;;;;10680462;33;20040;-75
2022/11/02 18:53:39;;;;;;;43.87;31.67;;;17.10;85.20;;;;;;10680958;33;20115;-76
2022/11/02 18:59:41;;;;;;;38.25;23.60;;;17.10;85.20;;;;;;10678706;33;20026;-76
2022/11/02 19:12:07;;;;;;;40.88;29.95;;;17.10;85.30;;;;;;10680564;33;20428;-76
2022/11/02 19:19:06;;;;;;;42.80;29.95;;;17.00;85.40;;;;;;10688836;33;20025;-73
2022/11/02 19:25:10;;;;;;;43.87;28.38;;;17.00;85.40;;;;;;10637029;33;20410;-73
2022/11/02 19:31:13;;;;;;;43.33;31.02;;;17.00;85.40;;;;;;10640281;33;20167;-72
2022/11/02 19:37:15;;;;;;;23.23;15.88;;;17.00;85.30;;;;;;10639658;33;20103;-73
2022/11/02 19:43:18;;;;;;;29.90;22.08;;;17.00;85.40;;;;;;10636339;33;20074;-72
2022/11/02 19:49:21;;;;;;;36.22;25.23;;;17.00;85.30;;;;;;10639606;33;20048;-73
2022/11/02 19:55:28;;;;;;;42.50;30.48;;;17.00;85.30;;;;;;10635285;33;20037;-72
2022/11/02 20:01:32;;;;;;;37.75;27.83;;;16.90;85.30;;;;;;10676445;33;20024;-72
2022/11/02 20:07:35;;;;;;;38.75;24.87;;;16.90;85.30;;;;;;10697756;33;20065;-72
2022/11/02 20:13:41;;;;;;;36.60;25.83;;;16.80;85.20;;;;;;10714917;33;20307;-72
2022/11/02 20:19:43;;;;;;;36.80;23.02;;;16.90;85.40;;;;;;10710734;33;20033;-72
2022/11/02 20:26:03;;;;;;;33.58;23.67;;;16.80;85.30;;;;;;10713797;33;20362;-73
2022/11/02 20:32:09;;;;;;;34.95;21.60;;;16.80;85.30;;;;;;10714400;33;20064;-73
2022/11/02 20:38:11;;;;;;;34.95;24.98;;;16.90;85.30;;;;;;10714114;33;20048;-73
2022/11/02 20:44:13;;;;;;;31.02;20.65;;;16.90;85.40;;;;;;10712706;33;20024;-73
2022/11/02 20:50:15;;;;;;;31.92;22.35;;;16.80;85.30;;;;;;10713088;33;20020;-73
2022/11/02 20:56:18;;;;;;;29.67;20.65;;;16.80;85.40;;;;;;10720096;33;20048;-73
2022/11/02 21:02:21;;;;;;;27.40;20.02;;;16.80;85.50;;;;;;10720142;33;20048;-73
2022/11/02 21:08:23;;;;;;;35.75;26.45;;;16.80;85.60;;;;;;10719816;33;20349;-72
2022/11/02 21:14:30;;;;;;;26.77;18.10;;;16.70;85.50;;;;;;10719961;33;20056;-72
2022/11/02 21:20:32;;;;;;;32.88;21.02;;;16.70;85.50;;;;;;10715861;33;20417;-77
2022/11/02 21:26:34;;;;;;;29.33;21.35;;;16.70;85.50;;;;;;10742063;32;20352;-76
2022/11/02 21:32:50;;;;;;;29.33;24.37;;;16.70;85.60;;;;;;10909568;32;20058;-76
2022/11/02 21:38:53;;;;;;;26.73;16.95;;;16.60;85.60;;;;;;10909440;32;20041;-76
2022/11/02 21:44:55;;;;;;;27.87;18.42;;;16.70;85.60;;;;;;10909387;32;20115;-76
2022/11/02 21:51:11;;;;;;;21.50;16.12;;;16.70;85.60;;;;;;10905325;32;20019;-76
2022/11/02 21:57:14;;;;;;;27.58;15.68;;;16.60;85.60;;;;;;10908763;32;20309;-76
2022/11/02 22:03:16;;;;;;;19.75;13.35;;;16.70;85.50;;;;;;10908260;32;20054;-76
2022/11/02 22:09:27;;;;;;;23.42;15.65;;;16.60;85.60;;;;;;10908447;32;20050;-76
2022/11/02 22:15:29;;;;;;;23.87;15.63;;;16.60;85.60;;;;;;10903945;32;20039;-76
2022/11/02 22:21:34;;;;;;;24.92;15.38;;;16.60;85.60;;;;;;10908126;32;20102;-77
2022/11/02 22:27:37;;;;;;;23.60;15.18;;;16.60;85.60;;;;;;10907962;32;20007;-77
2022/11/02 22:33:44;;;;;;;21.37;14.77;;;16.60;85.70;;;;;;10907382;32;20051;-73
2022/11/02 22:39:46;;;;;;;22.75;15.90;;;16.60;85.80;;;;;;10907507;32;20074;-73
2022/11/02 22:45:48;;;;;;;28.10;19.73;;;16.60;85.80;;;;;;10907167;32;20067;-72
2022/11/02 22:51:50;;;;;;;18.50;14.27;;;16.60;85.80;;;;;;10906976;32;20018;-72
2022/11/02 22:58:28;;;;;;;19.25;15.60;;;16.50;85.60;;;;;;10792413;32;20086;-73
2022/11/02 23:04:30;;;;;;;22.42;16.62;;;16.50;85.70;;;;;;10791439;33;20028;-72
2022/11/02 23:16:55;;;;;;;34.80;20.73;;;16.50;85.90;;;;;;10901621;32;20394;-73
2022/11/02 23:42:06;;;;;;;26.92;19.98;;;16.50;85.80;;;;;;10900993;32;20107;-73
2022/11/02 23:48:08;;;;;;;27.27;16.20;;;16.50;85.70;;;;;;10905175;32;20015;-73
